createdAt,value
2023-03-27T00:02:14.861Z,0.30
2023-03-27T00:04:42.398Z,0.30
2023-03-27T00:07:10.125Z,0.43
2023-03-27T00:09:39.109Z,0.40
2023-03-27T00:12:07.083Z,0.30
2023-03-27T00:14:34.618Z,0.50
2023-03-27T00:17:02.719Z,0.50
2023-03-27T00:19:33.868Z,0.90
2023-03-27T00:22:01.386Z,1.05
2023-03-27T00:24:28.902Z,1.40
2023-03-27T00:26:56.390Z,1.83
2023-03-27T00:29:23.945Z,1.88
2023-03-27T00:31:51.598Z,2.58
2023-03-27T00:34:19.109Z,2.50
2023-03-27T00:36:51.141Z,1.95
2023-03-27T00:39:19.196Z,2.83
2023-03-27T00:41:47.366Z,2.30
2023-03-27T00:44:25.068Z,1.98
2023-03-27T00:46:54.654Z,1.80
2023-03-27T00:49:23.529Z,1.73
2023-03-27T00:51:53.537Z,1.60
2023-03-27T00:54:26.401Z,1.60
2023-03-27T00:56:55.430Z,1.23
2023-03-27T00:59:24.562Z,1.35
2023-03-27T01:01:53.410Z,1.52
2023-03-27T01:04:22.761Z,1.42
2023-03-27T01:06:53.654Z,1.10
2023-03-27T01:09:21.502Z,1.05
2023-03-27T01:12:12.603Z,1.13
2023-03-27T01:17:23.021Z,1.20
2023-03-27T01:20:18.059Z,1.38
2023-03-27T01:23:35.823Z,1.33
2023-03-27T01:26:35.573Z,1.45
2023-03-27T01:29:08.736Z,1.33
2023-03-27T01:31:46.337Z,1.85
2023-03-27T01:34:48.343Z,1.90
2023-03-27T01:37:50.314Z,1.60
2023-03-27T01:40:19.810Z,1.38
2023-03-27T01:42:49.278Z,1.15
2023-03-27T01:45:19.868Z,1.20
2023-03-27T01:47:54.047Z,1.52
2023-03-27T01:50:27.817Z,1.48
2023-03-27T01:52:59.748Z,2.10
2023-03-27T01:55:30.839Z,2.05
2023-03-27T01:58:03.177Z,1.85
2023-03-27T02:03:22.506Z,1.63
2023-03-27T02:05:53.062Z,1.70
2023-03-27T02:08:24.851Z,2.30
2023-03-27T02:10:59.550Z,1.52
2023-03-27T02:16:01.605Z,1.98
2023-03-27T02:18:32.189Z,1.73
2023-03-27T02:20:59.797Z,2.08
2023-03-27T02:23:30.766Z,2.13
2023-03-27T02:26:00.226Z,2.00
2023-03-27T02:28:36.443Z,2.13
2023-03-27T02:31:33.750Z,2.17
2023-03-27T02:34:14.538Z,2.10
2023-03-27T02:36:49.449Z,2.35
2023-03-27T02:39:21.131Z,2.90
2023-03-27T02:41:55.965Z,2.60
2023-03-27T02:44:51.468Z,2.42
2023-03-27T02:47:24.570Z,2.50
2023-03-27T02:49:55.302Z,2.38
2023-03-27T02:52:27.575Z,2.30
2023-03-27T02:55:04.798Z,2.65
2023-03-27T02:57:39.445Z,2.13
2023-03-27T03:00:27.929Z,2.47
2023-03-27T03:03:13.659Z,1.65
2023-03-27T03:05:41.954Z,1.70
2023-03-27T03:08:11.766Z,1.60
2023-03-27T03:10:44.605Z,2.10
2023-03-27T03:13:15.300Z,1.75
2023-03-27T03:15:43.821Z,2.08
2023-03-27T03:18:11.482Z,1.63
2023-03-27T03:20:39.750Z,1.67
2023-03-27T03:23:07.606Z,1.60
2023-03-27T03:25:35.561Z,1.92
2023-03-27T03:28:07.982Z,1.20
2023-03-27T03:30:41.997Z,1.40
2023-03-27T03:33:14.167Z,2.03
2023-03-27T03:35:43.189Z,1.60
2023-03-27T03:38:25.132Z,1.35
2023-03-27T03:40:54.411Z,1.65
2023-03-27T03:43:22.868Z,1.50
2023-03-27T03:45:52.645Z,1.42
2023-03-27T03:48:21.170Z,1.67
2023-03-27T03:50:50.210Z,1.90
2023-03-27T03:53:19.378Z,2.03
2023-03-27T03:55:47.659Z,1.65
2023-03-27T03:58:15.504Z,1.98
2023-03-27T04:00:44.582Z,1.88
2023-03-27T04:03:27.420Z,2.05
2023-03-27T04:05:55.332Z,2.22
2023-03-27T04:08:22.935Z,2.63
2023-03-27T04:11:05.960Z,2.58
2023-03-27T04:13:48.488Z,2.70
2023-03-27T04:16:28.240Z,2.50
2023-03-27T04:18:57.140Z,2.80
2023-03-27T04:21:27.547Z,3.92
2023-03-27T04:24:02.172Z,4.13
2023-03-27T04:26:43.368Z,4.40
2023-03-27T04:29:31.838Z,2.67
2023-03-27T04:32:00.114Z,2.60
2023-03-27T04:34:44.183Z,3.17
2023-03-27T04:37:30.450Z,3.83
2023-03-27T04:40:17.884Z,3.05
2023-03-27T04:42:46.089Z,4.00
2023-03-27T04:45:14.944Z,3.05
2023-03-27T04:47:45.289Z,2.90
2023-03-27T04:50:15.295Z,3.92
2023-03-27T04:52:44.023Z,5.80
2023-03-27T04:55:12.528Z,5.70
2023-03-27T04:57:46.999Z,3.38
2023-03-27T05:00:17.026Z,3.72
2023-03-27T05:02:48.494Z,5.03
2023-03-27T05:05:23.273Z,4.95
2023-03-27T05:07:52.642Z,3.58
2023-03-27T05:10:23.633Z,4.00
2023-03-27T05:12:55.208Z,4.53
2023-03-27T05:15:24.398Z,4.15
2023-03-27T05:17:54.842Z,3.75
2023-03-27T05:20:26.891Z,4.55
2023-03-27T05:22:55.136Z,3.75
2023-03-27T05:25:32.446Z,3.95
2023-03-27T05:28:02.401Z,2.85
2023-03-27T05:30:32.854Z,3.38
2023-03-27T05:33:17.825Z,2.60
2023-03-27T05:35:48.635Z,2.45
2023-03-27T05:38:17.714Z,2.70
2023-03-27T05:40:53.100Z,1.85
2023-03-27T05:43:22.035Z,1.98
2023-03-27T05:45:49.587Z,2.22
2023-03-27T05:48:17.381Z,2.20
2023-03-27T05:50:46.923Z,2.10
2023-03-27T05:53:20.083Z,2.00
2023-03-27T05:56:11.375Z,2.35
2023-03-27T05:58:49.920Z,2.55
2023-03-27T06:01:17.466Z,2.03
2023-03-27T06:03:48.906Z,2.33
2023-03-27T06:06:23.429Z,1.95
2023-03-27T06:08:59.125Z,2.13
2023-03-27T06:11:28.303Z,2.50
2023-03-27T06:13:58.497Z,2.10
2023-03-27T06:16:40.153Z,2.35
2023-03-27T06:19:26.008Z,2.67
2023-03-27T06:21:55.594Z,2.05
2023-03-27T06:24:23.347Z,2.55
2023-03-27T06:26:51.373Z,3.67
2023-03-27T06:29:20.140Z,2.50
2023-03-27T06:31:50.959Z,2.28
2023-03-27T06:37:02.687Z,3.30
2023-03-27T06:39:36.293Z,2.70
2023-03-27T06:42:04.019Z,2.92
2023-03-27T06:44:32.005Z,3.83
2023-03-27T06:47:14.026Z,3.17
2023-03-27T06:50:00.588Z,4.13
2023-03-27T06:52:30.429Z,2.63
2023-03-27T06:55:14.772Z,4.43
2023-03-27T06:57:51.193Z,3.30
2023-03-27T07:00:24.264Z,5.50
2023-03-27T07:03:22.698Z,4.18
2023-03-27T07:05:50.645Z,2.67
2023-03-27T07:08:24.891Z,3.15
2023-03-27T07:11:10.707Z,3.13
2023-03-27T07:13:44.105Z,2.58
2023-03-27T07:16:21.267Z,4.50
2023-03-27T07:18:48.988Z,2.50
2023-03-27T07:21:16.561Z,3.00
2023-03-27T07:23:46.263Z,2.80
2023-03-27T07:26:17.650Z,2.92
2023-03-27T07:28:54.921Z,3.60
2023-03-27T07:31:33.092Z,5.82
2023-03-27T07:34:04.988Z,2.50
2023-03-27T07:37:08.360Z,2.25
2023-03-27T07:39:40.409Z,3.10
2023-03-27T07:42:08.716Z,8.00
2023-03-27T07:44:52.734Z,3.13
2023-03-27T07:47:20.847Z,2.72
2023-03-27T07:49:48.504Z,2.00
2023-03-27T07:52:21.710Z,2.35
2023-03-27T07:54:57.744Z,3.80
2023-03-27T07:57:37.203Z,1.83
2023-03-27T08:00:16.956Z,2.30
2023-03-27T08:02:45.621Z,1.88
2023-03-27T08:05:15.170Z,1.85
2023-03-27T08:07:47.268Z,1.40
2023-03-27T08:10:28.918Z,1.90
2023-03-27T08:12:59.773Z,1.40
2023-03-27T08:15:27.448Z,1.13
2023-03-27T08:17:56.820Z,1.33
2023-03-27T08:20:30.303Z,1.23
2023-03-27T08:23:00.652Z,2.47
2023-03-27T08:25:33.147Z,1.70
2023-03-27T08:28:03.558Z,1.23
2023-03-27T08:30:31.848Z,1.30
2023-03-27T08:33:00.107Z,1.25
2023-03-27T08:35:28.351Z,2.13
2023-03-27T08:37:55.877Z,1.35
2023-03-27T08:40:28.105Z,2.88
2023-03-27T08:43:27.221Z,2.00
2023-03-27T08:45:59.103Z,1.27
2023-03-27T08:48:31.465Z,1.13
2023-03-27T08:51:03.625Z,1.05
2023-03-27T08:53:35.145Z,1.42
2023-03-27T08:56:05.238Z,1.25
2023-03-27T08:58:42.859Z,0.85
2023-03-27T09:01:26.413Z,1.63
2023-03-27T09:04:02.601Z,1.10
2023-03-27T09:06:39.704Z,1.10
2023-03-27T09:09:11.936Z,0.82
2023-03-27T09:11:50.017Z,0.80
2023-03-27T09:14:28.087Z,1.95
2023-03-27T09:16:56.810Z,1.02
2023-03-27T09:19:47.518Z,1.40
2023-03-27T09:22:22.413Z,1.15
2023-03-27T09:25:07.732Z,1.13
2023-03-27T09:27:54.210Z,2.00
2023-03-27T09:30:34.494Z,1.40
2023-03-27T09:33:07.994Z,1.95
2023-03-27T09:35:38.716Z,1.10
2023-03-27T09:38:21.904Z,4.95
2023-03-27T09:40:53.944Z,3.45
2023-03-27T09:43:27.445Z,3.53
2023-03-27T09:46:02.174Z,2.35
2023-03-27T09:48:36.368Z,2.63
2023-03-27T09:51:37.458Z,1.10
2023-03-27T09:54:07.382Z,1.08
2023-03-27T09:56:40.213Z,0.70
2023-03-27T09:59:13.297Z,0.95
2023-03-27T10:01:47.609Z,1.20
2023-03-27T10:04:19.783Z,1.10
2023-03-27T10:06:59.895Z,1.05
2023-03-27T10:09:41.006Z,0.88
2023-03-27T10:12:12.369Z,0.95
2023-03-27T10:14:42.544Z,1.52
2023-03-27T10:17:23.817Z,1.08
2023-03-27T10:20:01.156Z,0.98
2023-03-27T10:22:30.852Z,0.73
2023-03-27T10:24:59.899Z,1.42
2023-03-27T10:27:36.078Z,0.80
2023-03-27T10:30:30.682Z,0.68
2023-03-27T10:33:32.347Z,1.67
2023-03-27T10:36:18.623Z,0.88
2023-03-27T10:38:56.385Z,0.70
2023-03-27T10:41:34.707Z,1.17
2023-03-27T10:44:06.992Z,1.00
2023-03-27T10:46:39.484Z,1.17
2023-03-27T10:49:19.956Z,1.42
2023-03-27T10:51:52.605Z,1.25
2023-03-27T10:54:35.398Z,1.20
2023-03-27T10:57:06.056Z,1.15
2023-03-27T10:59:42.233Z,1.45
2023-03-27T11:02:23.313Z,0.80
2023-03-27T11:04:56.795Z,1.65
2023-03-27T11:07:33.550Z,1.30
2023-03-27T11:12:37.058Z,1.40
2023-03-27T11:15:09.106Z,1.10
2023-03-27T11:17:42.158Z,1.00
2023-03-27T11:20:25.727Z,1.33
2023-03-27T11:23:14.964Z,1.02
2023-03-27T11:26:06.032Z,1.50
2023-03-27T11:28:39.733Z,1.95
2023-03-27T11:31:14.321Z,0.90
2023-03-27T11:33:48.792Z,0.93
2023-03-27T11:36:29.625Z,0.82
2023-03-27T11:39:15.663Z,0.75
2023-03-27T11:41:51.839Z,0.93
2023-03-27T11:44:20.502Z,1.02
2023-03-27T11:47:23.342Z,1.42
2023-03-27T11:50:25.459Z,1.30
2023-03-27T11:53:11.560Z,1.33
2023-03-27T11:56:16.742Z,0.70
2023-03-27T11:59:05.966Z,1.17
2023-03-27T12:01:37.552Z,1.00
2023-03-27T12:04:13.673Z,1.20
2023-03-27T12:07:12.346Z,1.02
2023-03-27T12:09:57.044Z,0.80
2023-03-27T12:12:52.047Z,1.00
2023-03-27T12:15:35.854Z,0.63
2023-03-27T12:18:10.842Z,1.00
2023-03-27T12:20:53.318Z,0.73
2023-03-27T12:23:31.206Z,0.98
2023-03-27T12:26:33.109Z,1.65
2023-03-27T12:29:23.203Z,1.20
2023-03-27T12:32:08.882Z,0.70
2023-03-27T12:34:50.118Z,0.90
2023-03-27T12:37:19.717Z,0.95
2023-03-27T12:39:51.898Z,0.93
2023-03-27T12:42:51.681Z,1.17
2023-03-27T12:45:23.517Z,0.70
2023-03-27T12:48:21.239Z,1.00
2023-03-27T12:50:58.332Z,1.02
2023-03-27T12:53:47.688Z,1.67
2023-03-27T12:56:37.156Z,0.80
2023-03-27T12:59:20.427Z,0.93
2023-03-27T13:02:05.206Z,0.93
2023-03-27T13:05:24.050Z,1.63
2023-03-27T13:08:07.008Z,0.88
2023-03-27T13:10:59.233Z,1.02
2023-03-27T13:14:09.588Z,0.90
2023-03-27T13:16:49.917Z,1.05
2023-03-27T13:19:30.496Z,1.33
2023-03-27T13:22:29.031Z,1.15
2023-03-27T13:25:21.746Z,1.00
2023-03-27T13:28:09.293Z,0.82
2023-03-27T13:30:50.587Z,1.00
2023-03-27T13:33:47.464Z,1.05
2023-03-27T13:36:29.792Z,1.33
2023-03-27T13:39:18.355Z,1.50
2023-03-27T13:42:08.119Z,1.58
2023-03-27T13:45:00.244Z,2.47
2023-03-27T13:48:13.898Z,1.00
2023-03-27T13:51:09.413Z,1.88
2023-03-27T13:53:47.115Z,1.58
2023-03-27T13:56:44.886Z,1.38
2023-03-27T14:00:06.272Z,1.40
2023-03-27T14:03:17.694Z,0.77
2023-03-27T14:06:17.122Z,0.88
2023-03-27T14:08:48.683Z,1.10
2023-03-27T14:11:45.237Z,1.25
2023-03-27T14:14:38.025Z,1.30
2023-03-27T14:17:34.502Z,0.77
2023-03-27T14:20:15.081Z,0.77
2023-03-27T14:22:50.197Z,1.02
2023-03-27T14:25:24.377Z,1.60
2023-03-27T14:27:58.255Z,1.40
2023-03-27T14:30:28.192Z,1.13
2023-03-27T14:33:12.393Z,1.13
2023-03-27T14:35:42.404Z,1.00
2023-03-27T14:38:22.556Z,0.82
2023-03-27T14:40:52.319Z,1.33
2023-03-27T14:43:30.661Z,0.70
2023-03-27T14:46:01.297Z,1.08
2023-03-27T14:48:31.881Z,0.75
2023-03-27T14:51:02.801Z,1.40
2023-03-27T14:53:44.459Z,1.13
2023-03-27T14:56:30.317Z,1.20
2023-03-27T14:59:05.232Z,0.88
2023-03-27T15:01:45.633Z,0.63
2023-03-27T15:04:14.446Z,0.90
2023-03-27T15:06:43.982Z,0.80
2023-03-27T15:09:19.980Z,1.00
2023-03-27T15:12:11.620Z,0.90
2023-03-27T15:14:40.983Z,1.00
2023-03-27T15:17:12.127Z,1.13
2023-03-27T15:19:45.564Z,1.17
2023-03-27T15:22:18.084Z,1.30
2023-03-27T15:24:51.106Z,1.55
2023-03-27T15:27:21.435Z,1.10
2023-03-27T15:29:51.348Z,1.00
2023-03-27T15:32:22.049Z,1.05
2023-03-27T15:34:55.686Z,1.00
2023-03-27T15:37:25.446Z,1.08
2023-03-27T15:40:07.075Z,0.93
2023-03-27T15:42:46.249Z,1.23
2023-03-27T15:45:16.902Z,1.55
2023-03-27T15:47:45.441Z,1.15
2023-03-27T15:50:19.715Z,0.70
2023-03-27T15:52:51.686Z,0.90
2023-03-27T15:55:38.803Z,0.88
2023-03-27T15:58:20.624Z,1.08
2023-03-27T16:00:49.125Z,0.93
2023-03-27T16:03:21.130Z,1.00
2023-03-27T16:05:49.847Z,0.60
2023-03-27T16:08:28.794Z,0.95
2023-03-27T16:10:58.417Z,0.65
2023-03-27T16:13:29.230Z,0.80
2023-03-27T16:15:58.726Z,0.77
2023-03-27T16:18:31.192Z,0.68
2023-03-27T16:21:06.923Z,1.50
2023-03-27T16:23:34.514Z,0.55
2023-03-27T16:26:04.225Z,0.90
2023-03-27T16:28:32.146Z,1.23
2023-03-27T16:30:59.765Z,0.82
2023-03-27T16:33:28.667Z,1.08
2023-03-27T16:35:57.209Z,0.80
2023-03-27T16:38:25.556Z,0.93
2023-03-27T16:40:53.096Z,1.20
2023-03-27T16:43:21.936Z,1.35
2023-03-27T16:45:49.553Z,1.00
2023-03-27T16:48:17.579Z,0.60
2023-03-27T16:50:45.136Z,0.70
2023-03-27T16:53:12.635Z,2.00
2023-03-27T16:55:40.380Z,0.95
2023-03-27T16:58:08.879Z,1.20
2023-03-27T17:00:37.933Z,1.10
2023-03-27T17:03:05.959Z,1.58
2023-03-27T17:05:34.435Z,0.70
2023-03-27T17:08:02.286Z,0.75
2023-03-27T17:10:31.320Z,1.27
2023-03-27T17:12:58.856Z,1.15
2023-03-27T17:15:26.326Z,1.50
2023-03-27T17:17:55.283Z,1.70
2023-03-27T17:20:22.942Z,1.45
2023-03-27T17:22:51.942Z,1.10
2023-03-27T17:25:19.498Z,1.10
2023-03-27T17:27:47.472Z,1.33
2023-03-27T17:30:21.450Z,1.45
2023-03-27T17:32:57.151Z,0.80
2023-03-27T17:35:24.764Z,0.90
2023-03-27T17:37:52.254Z,1.48
2023-03-27T17:40:19.978Z,0.90
2023-03-27T17:42:47.525Z,1.20
2023-03-27T17:45:19.336Z,1.00
2023-03-27T17:47:46.922Z,1.30
2023-03-27T17:50:16.095Z,1.00
2023-03-27T17:52:43.790Z,0.90
2023-03-27T17:55:11.547Z,1.10
2023-03-27T17:57:39.375Z,1.15
2023-03-27T18:00:09.779Z,1.10
2023-03-27T18:02:39.997Z,1.13
2023-03-27T18:05:09.073Z,1.08
2023-03-27T18:07:37.974Z,0.98
2023-03-27T18:10:06.748Z,1.30
2023-03-27T18:12:34.336Z,1.08
2023-03-27T18:15:01.902Z,1.33
2023-03-27T18:17:29.574Z,1.17
2023-03-27T18:19:57.204Z,1.63
2023-03-27T18:22:24.802Z,1.30
2023-03-27T18:24:53.792Z,1.40
2023-03-27T18:27:21.495Z,1.42
2023-03-27T18:29:49.347Z,1.05
2023-03-27T18:32:16.847Z,1.33
2023-03-27T18:34:44.621Z,1.35
2023-03-27T18:37:12.292Z,1.42
2023-03-27T18:39:39.928Z,2.10
2023-03-27T18:42:09.503Z,1.60
2023-03-27T18:44:39.009Z,1.17
2023-03-27T18:47:08.426Z,1.20
2023-03-27T18:49:36.713Z,1.20
2023-03-27T18:52:04.570Z,1.00
2023-03-27T18:54:32.171Z,0.98
2023-03-27T18:56:59.765Z,1.05
2023-03-27T18:59:28.898Z,1.30
2023-03-27T19:01:56.446Z,1.52
2023-03-27T19:04:24.855Z,1.08
2023-03-27T19:06:53.276Z,0.73
2023-03-27T19:09:25.565Z,1.17
2023-03-27T19:12:01.838Z,0.95
2023-03-27T19:14:49.396Z,0.98
2023-03-27T19:17:36.633Z,2.25
2023-03-27T19:20:23.097Z,0.93
2023-03-27T19:23:09.495Z,0.80
2023-03-27T19:25:41.509Z,0.90
2023-03-27T19:28:09.050Z,0.85
2023-03-27T19:30:37.919Z,1.38
2023-03-27T19:33:06.182Z,1.23
2023-03-27T19:35:33.847Z,0.70
2023-03-27T19:38:01.488Z,0.90
2023-03-27T19:40:28.981Z,1.20
2023-03-27T19:42:56.870Z,1.55
2023-03-27T19:45:24.702Z,1.02
2023-03-27T19:47:53.668Z,1.50
2023-03-27T19:50:22.702Z,0.90
2023-03-27T19:53:10.503Z,1.17
2023-03-27T19:55:38.540Z,1.25
2023-03-27T19:58:06.061Z,1.15
2023-03-27T20:00:38.246Z,1.10
2023-03-27T20:03:10.035Z,1.92
2023-03-27T20:05:41.376Z,0.90
2023-03-27T20:08:08.911Z,0.93
2023-03-27T20:10:36.430Z,1.00
2023-03-27T20:13:04.862Z,1.00
2023-03-27T20:15:34.092Z,0.88
2023-03-27T20:18:02.567Z,1.05
2023-03-27T20:20:31.555Z,1.00
2023-03-27T20:23:02.639Z,0.98
2023-03-27T20:25:33.651Z,0.90
2023-03-27T20:28:01.799Z,1.15
2023-03-27T20:30:29.659Z,0.90
2023-03-27T20:32:58.063Z,1.15
2023-03-27T20:35:25.598Z,1.20
2023-03-27T20:37:57.660Z,1.08
2023-03-27T20:40:26.354Z,1.30
2023-03-27T20:43:02.823Z,1.17
2023-03-27T20:45:30.796Z,1.85
2023-03-27T20:48:03.416Z,0.93
2023-03-27T20:50:31.660Z,1.30
2023-03-27T20:53:00.545Z,1.08
2023-03-27T20:55:34.598Z,1.05
2023-03-27T20:58:06.246Z,1.00
2023-03-27T21:00:33.798Z,1.30
2023-03-27T21:03:01.398Z,1.58
2023-03-27T21:05:30.624Z,0.90
2023-03-27T21:07:59.869Z,1.00
2023-03-27T21:10:28.676Z,1.00
2023-03-27T21:12:57.476Z,1.27
2023-03-27T21:15:25.221Z,1.50
2023-03-27T21:17:52.837Z,1.25
2023-03-27T21:20:20.714Z,1.30
2023-03-27T21:22:52.593Z,1.25
2023-03-27T21:25:20.827Z,1.15
2023-03-27T21:27:53.458Z,1.10
2023-03-27T21:30:21.546Z,1.00
2023-03-27T21:32:50.619Z,1.27
2023-03-27T21:35:18.564Z,1.02
2023-03-27T21:37:46.247Z,1.20
2023-03-27T21:40:14.035Z,2.00
2023-03-27T21:42:41.545Z,1.20
2023-03-27T21:45:10.867Z,1.35
2023-03-27T21:47:47.132Z,1.10
2023-03-27T21:50:15.943Z,1.08
2023-03-27T21:52:43.490Z,1.33
2023-03-27T21:55:11.043Z,1.17
2023-03-27T21:57:38.546Z,1.13
2023-03-27T22:00:08.145Z,0.90
2023-03-27T22:02:42.086Z,1.33
2023-03-27T22:05:10.032Z,1.05
2023-03-27T22:07:37.648Z,0.98
2023-03-27T22:10:06.388Z,1.17
2023-03-27T22:12:35.596Z,1.40
2023-03-27T22:15:03.130Z,0.95
2023-03-27T22:17:30.862Z,1.00
2023-03-27T22:20:00.184Z,1.08
2023-03-27T22:22:27.675Z,0.95
2023-03-27T22:24:55.258Z,1.17
2023-03-27T22:27:22.813Z,1.10
2023-03-27T22:29:50.287Z,0.82
2023-03-27T22:32:17.824Z,0.80
2023-03-27T22:34:45.437Z,0.88
2023-03-27T22:37:14.936Z,0.93
2023-03-27T22:39:42.485Z,1.15
2023-03-27T22:42:10.231Z,0.90
2023-03-27T22:44:37.803Z,0.85
2023-03-27T22:47:05.429Z,0.80
2023-03-27T22:49:32.971Z,0.90
2023-03-27T22:52:00.458Z,1.10
2023-03-27T22:54:29.397Z,0.80
2023-03-27T22:56:58.828Z,1.02
2023-03-27T22:59:26.361Z,0.75
2023-03-27T23:01:54.866Z,0.75
2023-03-27T23:04:22.414Z,0.93
2023-03-27T23:06:50.304Z,0.73
2023-03-27T23:09:18.412Z,0.93
2023-03-27T23:11:47.958Z,0.80
2023-03-27T23:14:15.461Z,0.75
2023-03-27T23:16:42.937Z,0.82
2023-03-27T23:19:10.494Z,0.90
2023-03-27T23:21:37.991Z,1.00
2023-03-27T23:24:06.430Z,1.25
2023-03-27T23:26:33.919Z,1.02
2023-03-27T23:29:02.805Z,0.80
2023-03-27T23:31:30.370Z,1.23
2023-03-27T23:33:57.983Z,1.08
2023-03-27T23:36:26.021Z,0.60
2023-03-27T23:38:54.199Z,0.70
2023-03-27T23:41:22.273Z,0.70
2023-03-27T23:43:50.469Z,1.30
2023-03-27T23:46:19.342Z,0.63
2023-03-27T23:48:46.942Z,0.90
2023-03-27T23:51:16.198Z,1.55
2023-03-27T23:53:43.707Z,1.00
2023-03-27T23:56:11.711Z,1.40
2023-03-27T23:58:39.240Z,2.10
